sensor_id;sensor_type;location;lat;lon;timestamp;P1;durP1;ratioP1;P2;durP2;ratioP2
4696;SDS011;2362;50.780;0.292;2022-07-30T00:01:51;1.00;;;1.00;;
4696;SDS011;2362;50.780;0.292;2022-07-30T00:04:16;0.85;;;0.85;;
4696;SDS011;2362;50.780;0.292;2022-07-30T00:06:42;0.93;;;0.93;;
4696;SDS011;2362;50.780;0.292;2022-07-30T00:09:08;0.95;;;0.95;;
4696;SDS011;2362;50.780;0.292;2022-07-30T00:11:34;1.10;;;1.10;;
4696;SDS011;2362;50.780;0.292;2022-07-30T00:14:00;1.00;;;1.00;;
4696;SDS011;2362;50.780;0.292;2022-07-30T00:16:26;1.00;;;1.00;;
4696;SDS011;2362;50.780;0.292;2022-07-30T00:18:52;1.10;;;1.10;;
4696;SDS011;2362;50.780;0.292;2022-07-30T00:21:18;0.98;;;0.98;;
4696;SDS011;2362;50.780;0.292;2022-07-30T00:23:44;1.00;;;1.00;;
4696;SDS011;2362;50.780;0.292;2022-07-30T00:26:09;1.00;;;1.00;;
4696;SDS011;2362;50.780;0.292;2022-07-30T00:28:35;0.93;;;0.93;;
4696;SDS011;2362;50.780;0.292;2022-07-30T00:31:01;1.08;;;1.08;;
4696;SDS011;2362;50.780;0.292;2022-07-30T00:33:26;1.10;;;1.10;;
4696;SDS011;2362;50.780;0.292;2022-07-30T00:35:52;1.10;;;1.10;;
4696;SDS011;2362;50.780;0.292;2022-07-30T00:38:18;1.00;;;1.00;;
4696;SDS011;2362;50.780;0.292;2022-07-30T00:40:45;0.82;;;0.82;;
4696;SDS011;2362;50.780;0.292;2022-07-30T00:43:15;0.90;;;0.90;;
4696;SDS011;2362;50.780;0.292;2022-07-30T00:45:42;1.05;;;1.05;;
4696;SDS011;2362;50.780;0.292;2022-07-30T00:48:09;1.00;;;1.00;;
4696;SDS011;2362;50.780;0.292;2022-07-30T00:50:36;1.20;;;1.20;;
4696;SDS011;2362;50.780;0.292;2022-07-30T00:53:03;1.10;;;1.10;;
4696;SDS011;2362;50.780;0.292;2022-07-30T00:55:29;1.10;;;1.10;;
4696;SDS011;2362;50.780;0.292;2022-07-30T00:57:55;0.80;;;0.80;;
4696;SDS011;2362;50.780;0.292;2022-07-30T01:00:20;1.00;;;1.00;;
4696;SDS011;2362;50.780;0.292;2022-07-30T01:02:46;1.10;;;1.10;;
4696;SDS011;2362;50.780;0.292;2022-07-30T01:05:12;0.90;;;0.90;;
4696;SDS011;2362;50.780;0.292;2022-07-30T01:07:38;0.90;;;0.90;;
4696;SDS011;2362;50.780;0.292;2022-07-30T01:10:05;0.90;;;0.90;;
4696;SDS011;2362;50.780;0.292;2022-07-30T01:12:32;1.00;;;1.00;;
4696;SDS011;2362;50.780;0.292;2022-07-30T01:14:58;0.98;;;0.98;;
4696;SDS011;2362;50.780;0.292;2022-07-30T01:17:25;1.00;;;1.00;;
4696;SDS011;2362;50.780;0.292;2022-07-30T01:19:51;1.23;;;1.23;;
4696;SDS011;2362;50.780;0.292;2022-07-30T01:28:13;1.15;;;1.15;;
4696;SDS011;2362;50.780;0.292;2022-07-30T01:30:40;1.10;;;1.10;;
4696;SDS011;2362;50.780;0.292;2022-07-30T01:33:07;1.20;;;1.20;;
4696;SDS011;2362;50.780;0.292;2022-07-30T01:35:36;1.48;;;1.40;;
4696;SDS011;2362;50.780;0.292;2022-07-30T01:38:04;1.30;;;1.30;;
4696;SDS011;2362;50.780;0.292;2022-07-30T01:40:30;1.10;;;1.10;;
4696;SDS011;2362;50.780;0.292;2022-07-30T01:42:58;0.93;;;0.93;;
4696;SDS011;2362;50.780;0.292;2022-07-30T01:45:27;0.90;;;0.90;;
4696;SDS011;2362;50.780;0.292;2022-07-30T01:47:54;1.20;;;1.20;;
4696;SDS011;2362;50.780;0.292;2022-07-30T01:50:22;1.00;;;1.00;;
4696;SDS011;2362;50.780;0.292;2022-07-30T01:52:50;1.17;;;1.17;;
4696;SDS011;2362;50.780;0.292;2022-07-30T01:55:20;1.10;;;1.10;;
4696;SDS011;2362;50.780;0.292;2022-07-30T01:57:59;1.10;;;1.10;;
4696;SDS011;2362;50.780;0.292;2022-07-30T02:00:26;0.95;;;0.95;;
4696;SDS011;2362;50.780;0.292;2022-07-30T02:02:55;1.17;;;1.17;;
4696;SDS011;2362;50.780;0.292;2022-07-30T02:05:22;1.20;;;1.20;;
4696;SDS011;2362;50.780;0.292;2022-07-30T02:07:51;0.90;;;0.90;;
4696;SDS011;2362;50.780;0.292;2022-07-30T02:10:25;1.00;;;1.00;;
4696;SDS011;2362;50.780;0.292;2022-07-30T02:12:57;1.20;;;1.20;;
4696;SDS011;2362;50.780;0.292;2022-07-30T02:15:28;1.08;;;1.08;;
4696;SDS011;2362;50.780;0.292;2022-07-30T02:20:28;1.10;;;1.10;;
4696;SDS011;2362;50.780;0.292;2022-07-30T02:22:57;1.10;;;1.10;;
4696;SDS011;2362;50.780;0.292;2022-07-30T02:25:27;1.20;;;1.20;;
4696;SDS011;2362;50.780;0.292;2022-07-30T02:27:57;1.13;;;1.13;;
4696;SDS011;2362;50.780;0.292;2022-07-30T02:30:29;1.17;;;1.17;;
4696;SDS011;2362;50.780;0.292;2022-07-30T02:33:06;1.30;;;1.30;;
4696;SDS011;2362;50.780;0.292;2022-07-30T02:35:37;1.10;;;1.10;;
4696;SDS011;2362;50.780;0.292;2022-07-30T02:38:04;1.95;;;1.80;;
4696;SDS011;2362;50.780;0.292;2022-07-30T02:40:31;1.10;;;1.10;;
4696;SDS011;2362;50.780;0.292;2022-07-30T02:42:58;1.10;;;1.10;;
4696;SDS011;2362;50.780;0.292;2022-07-30T02:45:24;1.02;;;1.02;;
4696;SDS011;2362;50.780;0.292;2022-07-30T02:47:56;1.23;;;1.23;;
4696;SDS011;2362;50.780;0.292;2022-07-30T02:50:31;1.10;;;1.10;;
4696;SDS011;2362;50.780;0.292;2022-07-30T02:52:58;1.00;;;1.00;;
4696;SDS011;2362;50.780;0.292;2022-07-30T02:55:25;1.10;;;1.10;;
4696;SDS011;2362;50.780;0.292;2022-07-30T02:57:54;1.20;;;1.20;;
4696;SDS011;2362;50.780;0.292;2022-07-30T03:00:20;1.05;;;1.05;;
4696;SDS011;2362;50.780;0.292;2022-07-30T03:02:47;1.33;;;1.33;;
4696;SDS011;2362;50.780;0.292;2022-07-30T03:05:14;1.13;;;1.13;;
4696;SDS011;2362;50.780;0.292;2022-07-30T03:07:40;1.17;;;1.17;;
4696;SDS011;2362;50.780;0.292;2022-07-30T03:10:06;1.00;;;1.00;;
4696;SDS011;2362;50.780;0.292;2022-07-30T03:12:33;1.10;;;1.10;;
4696;SDS011;2362;50.780;0.292;2022-07-30T03:15:00;1.08;;;1.08;;
4696;SDS011;2362;50.780;0.292;2022-07-30T03:17:27;1.10;;;1.10;;
4696;SDS011;2362;50.780;0.292;2022-07-30T03:19:56;1.20;;;1.20;;
4696;SDS011;2362;50.780;0.292;2022-07-30T03:22:25;1.42;;;1.40;;
4696;SDS011;2362;50.780;0.292;2022-07-30T03:24:53;1.10;;;1.10;;
4696;SDS011;2362;50.780;0.292;2022-07-30T03:27:20;1.00;;;1.00;;
4696;SDS011;2362;50.780;0.292;2022-07-30T03:29:46;1.20;;;1.20;;
4696;SDS011;2362;50.780;0.292;2022-07-30T03:32:13;1.00;;;1.00;;
4696;SDS011;2362;50.780;0.292;2022-07-30T03:34:39;1.10;;;1.10;;
4696;SDS011;2362;50.780;0.292;2022-07-30T03:37:06;1.35;;;1.35;;
4696;SDS011;2362;50.780;0.292;2022-07-30T03:39:33;1.30;;;1.30;;
4696;SDS011;2362;50.780;0.292;2022-07-30T03:42:00;0.88;;;0.88;;
4696;SDS011;2362;50.780;0.292;2022-07-30T03:44:27;1.10;;;1.10;;
4696;SDS011;2362;50.780;0.292;2022-07-30T03:46:54;1.17;;;1.17;;
4696;SDS011;2362;50.780;0.292;2022-07-30T03:49:21;1.20;;;1.20;;
4696;SDS011;2362;50.780;0.292;2022-07-30T03:51:48;1.20;;;1.20;;
4696;SDS011;2362;50.780;0.292;2022-07-30T03:54:15;1.20;;;1.20;;
4696;SDS011;2362;50.780;0.292;2022-07-30T03:56:43;1.20;;;1.20;;
4696;SDS011;2362;50.780;0.292;2022-07-30T03:59:09;1.10;;;1.10;;
4696;SDS011;2362;50.780;0.292;2022-07-30T04:01:37;1.20;;;1.20;;
4696;SDS011;2362;50.780;0.292;2022-07-30T04:04:06;1.30;;;1.30;;
4696;SDS011;2362;50.780;0.292;2022-07-30T04:06:33;1.10;;;1.10;;
4696;SDS011;2362;50.780;0.292;2022-07-30T04:09:04;1.05;;;1.05;;
4696;SDS011;2362;50.780;0.292;2022-07-30T04:11:33;0.98;;;0.98;;
4696;SDS011;2362;50.780;0.292;2022-07-30T04:13:59;1.02;;;1.02;;
4696;SDS011;2362;50.780;0.292;2022-07-30T04:16:34;1.90;;;1.80;;
4696;SDS011;2362;50.780;0.292;2022-07-30T04:19:01;1.17;;;1.17;;
4696;SDS011;2362;50.780;0.292;2022-07-30T04:21:29;1.00;;;1.00;;
4696;SDS011;2362;50.780;0.292;2022-07-30T04:23:57;1.00;;;1.00;;
4696;SDS011;2362;50.780;0.292;2022-07-30T04:26:26;1.10;;;1.10;;
4696;SDS011;2362;50.780;0.292;2022-07-30T04:28:56;1.30;;;1.30;;
4696;SDS011;2362;50.780;0.292;2022-07-30T04:31:22;1.10;;;1.10;;
4696;SDS011;2362;50.780;0.292;2022-07-30T04:33:48;1.20;;;1.20;;
4696;SDS011;2362;50.780;0.292;2022-07-30T04:36:14;1.35;;;1.35;;
4696;SDS011;2362;50.780;0.292;2022-07-30T04:38:40;1.20;;;1.20;;
4696;SDS011;2362;50.780;0.292;2022-07-30T04:41:05;1.30;;;1.30;;
4696;SDS011;2362;50.780;0.292;2022-07-30T04:43:31;1.20;;;1.20;;
4696;SDS011;2362;50.780;0.292;2022-07-30T04:45:57;1.13;;;1.13;;
4696;SDS011;2362;50.780;0.292;2022-07-30T04:48:23;1.20;;;1.20;;
4696;SDS011;2362;50.780;0.292;2022-07-30T04:50:50;1.25;;;1.25;;
4696;SDS011;2362;50.780;0.292;2022-07-30T04:53:19;1.13;;;1.13;;
4696;SDS011;2362;50.780;0.292;2022-07-30T04:55:45;1.20;;;1.20;;
4696;SDS011;2362;50.780;0.292;2022-07-30T04:58:13;1.17;;;1.17;;
4696;SDS011;2362;50.780;0.292;2022-07-30T05:00:42;1.20;;;1.20;;
4696;SDS011;2362;50.780;0.292;2022-07-30T05:03:11;1.10;;;1.10;;
4696;SDS011;2362;50.780;0.292;2022-07-30T05:05:38;1.10;;;1.10;;
4696;SDS011;2362;50.780;0.292;2022-07-30T05:08:05;0.90;;;0.90;;
4696;SDS011;2362;50.780;0.292;2022-07-30T05:10:31;1.17;;;1.17;;
4696;SDS011;2362;50.780;0.292;2022-07-30T05:12:57;1.20;;;1.20;;
4696;SDS011;2362;50.780;0.292;2022-07-30T05:15:23;1.13;;;1.13;;
4696;SDS011;2362;50.780;0.292;2022-07-30T05:17:48;1.10;;;1.10;;
4696;SDS011;2362;50.780;0.292;2022-07-30T05:20:15;1.20;;;1.20;;
4696;SDS011;2362;50.780;0.292;2022-07-30T05:22:41;1.20;;;1.20;;
4696;SDS011;2362;50.780;0.292;2022-07-30T05:25:07;0.90;;;0.90;;
4696;SDS011;2362;50.780;0.292;2022-07-30T05:27:33;1.20;;;1.20;;
4696;SDS011;2362;50.780;0.292;2022-07-30T05:29:59;1.10;;;1.10;;
4696;SDS011;2362;50.780;0.292;2022-07-30T05:32:24;0.80;;;0.80;;
4696;SDS011;2362;50.780;0.292;2022-07-30T05:34:50;1.30;;;1.30;;
4696;SDS011;2362;50.780;0.292;2022-07-30T05:37:15;0.90;;;0.90;;
4696;SDS011;2362;50.780;0.292;2022-07-30T05:39:41;1.17;;;1.17;;
4696;SDS011;2362;50.780;0.292;2022-07-30T05:42:07;1.00;;;1.00;;
4696;SDS011;2362;50.780;0.292;2022-07-30T05:44:33;1.00;;;1.00;;
4696;SDS011;2362;50.780;0.292;2022-07-30T05:46:58;0.70;;;0.70;;
4696;SDS011;2362;50.780;0.292;2022-07-30T05:49:24;0.85;;;0.85;;
4696;SDS011;2362;50.780;0.292;2022-07-30T05:51:49;0.70;;;0.70;;
4696;SDS011;2362;50.780;0.292;2022-07-30T05:54:15;0.80;;;0.80;;
4696;SDS011;2362;50.780;0.292;2022-07-30T05:56:41;0.70;;;0.70;;
4696;SDS011;2362;50.780;0.292;2022-07-30T05:59:06;0.68;;;0.68;;
4696;SDS011;2362;50.780;0.292;2022-07-30T06:01:32;0.70;;;0.70;;
4696;SDS011;2362;50.780;0.292;2022-07-30T06:03:57;0.65;;;0.65;;
4696;SDS011;2362;50.780;0.292;2022-07-30T06:06:23;0.68;;;0.68;;
4696;SDS011;2362;50.780;0.292;2022-07-30T06:08:49;2.28;;;2.17;;
4696;SDS011;2362;50.780;0.292;2022-07-30T06:11:15;0.60;;;0.60;;
4696;SDS011;2362;50.780;0.292;2022-07-30T06:13:40;0.50;;;0.50;;
4696;SDS011;2362;50.780;0.292;2022-07-30T06:16:07;0.50;;;0.50;;
4696;SDS011;2362;50.780;0.292;2022-07-30T06:18:33;0.40;;;0.40;;
4696;SDS011;2362;50.780;0.292;2022-07-30T06:20:58;0.50;;;0.50;;
4696;SDS011;2362;50.780;0.292;2022-07-30T06:23:24;0.50;;;0.50;;
4696;SDS011;2362;50.780;0.292;2022-07-30T06:25:50;0.45;;;0.45;;
4696;SDS011;2362;50.780;0.292;2022-07-30T06:28:16;0.40;;;0.40;;
4696;SDS011;2362;50.780;0.292;2022-07-30T06:30:42;0.40;;;0.40;;
4696;SDS011;2362;50.780;0.292;2022-07-30T06:33:14;0.30;;;0.30;;
4696;SDS011;2362;50.780;0.292;2022-07-30T06:35:40;0.40;;;0.40;;
4696;SDS011;2362;50.780;0.292;2022-07-30T06:38:06;0.30;;;0.30;;
4696;SDS011;2362;50.780;0.292;2022-07-30T06:40:31;0.40;;;0.40;;
4696;SDS011;2362;50.780;0.292;2022-07-30T06:42:57;0.40;;;0.40;;
4696;SDS011;2362;50.780;0.292;2022-07-30T06:45:23;0.40;;;0.40;;
4696;SDS011;2362;50.780;0.292;2022-07-30T06:47:49;0.40;;;0.40;;
4696;SDS011;2362;50.780;0.292;2022-07-30T06:50:14;0.40;;;0.40;;
4696;SDS011;2362;50.780;0.292;2022-07-30T06:52:42;0.40;;;0.40;;
4696;SDS011;2362;50.780;0.292;2022-07-30T06:55:08;0.65;;;0.63;;
4696;SDS011;2362;50.780;0.292;2022-07-30T06:57:34;0.32;;;0.32;;
4696;SDS011;2362;50.780;0.292;2022-07-30T07:00:00;0.40;;;0.40;;
4696;SDS011;2362;50.780;0.292;2022-07-30T07:02:25;0.32;;;0.32;;
4696;SDS011;2362;50.780;0.292;2022-07-30T07:04:51;0.30;;;0.30;;
4696;SDS011;2362;50.780;0.292;2022-07-30T07:07:17;0.40;;;0.40;;
4696;SDS011;2362;50.780;0.292;2022-07-30T07:09:42;0.30;;;0.30;;
4696;SDS011;2362;50.780;0.292;2022-07-30T07:12:10;0.40;;;0.40;;
4696;SDS011;2362;50.780;0.292;2022-07-30T07:14:36;0.30;;;0.30;;
4696;SDS011;2362;50.780;0.292;2022-07-30T07:17:02;0.38;;;0.38;;
4696;SDS011;2362;50.780;0.292;2022-07-30T07:19:27;0.30;;;0.30;;
4696;SDS011;2362;50.780;0.292;2022-07-30T07:21:53;0.30;;;0.30;;
4696;SDS011;2362;50.780;0.292;2022-07-30T07:24:19;0.30;;;0.30;;
4696;SDS011;2362;50.780;0.292;2022-07-30T07:26:44;0.20;;;0.20;;
4696;SDS011;2362;50.780;0.292;2022-07-30T07:29:12;0.20;;;0.20;;
4696;SDS011;2362;50.780;0.292;2022-07-30T07:31:38;0.20;;;0.20;;
4696;SDS011;2362;50.780;0.292;2022-07-30T07:34:05;0.20;;;0.20;;
4696;SDS011;2362;50.780;0.292;2022-07-30T07:36:31;0.20;;;0.20;;
4696;SDS011;2362;50.780;0.292;2022-07-30T07:38:59;0.20;;;0.20;;
4696;SDS011;2362;50.780;0.292;2022-07-30T07:41:25;0.20;;;0.20;;
4696;SDS011;2362;50.780;0.292;2022-07-30T07:43:50;0.20;;;0.20;;
4696;SDS011;2362;50.780;0.292;2022-07-30T07:46:16;0.20;;;0.20;;
4696;SDS011;2362;50.780;0.292;2022-07-30T07:48:42;0.20;;;0.20;;
4696;SDS011;2362;50.780;0.292;2022-07-30T07:51:08;0.30;;;0.30;;
4696;SDS011;2362;50.780;0.292;2022-07-30T07:53:34;0.80;;;0.77;;
4696;SDS011;2362;50.780;0.292;2022-07-30T07:56:00;0.20;;;0.20;;
4696;SDS011;2362;50.780;0.292;2022-07-30T07:58:26;3.95;;;1.50;;
4696;SDS011;2362;50.780;0.292;2022-07-30T08:00:52;0.20;;;0.20;;
4696;SDS011;2362;50.780;0.292;2022-07-30T08:03:17;0.20;;;0.20;;
4696;SDS011;2362;50.780;0.292;2022-07-30T08:05:43;0.30;;;0.30;;
4696;SDS011;2362;50.780;0.292;2022-07-30T08:08:09;0.20;;;0.20;;
4696;SDS011;2362;50.780;0.292;2022-07-30T08:10:35;0.20;;;0.20;;
4696;SDS011;2362;50.780;0.292;2022-07-30T08:13:00;0.30;;;0.30;;
4696;SDS011;2362;50.780;0.292;2022-07-30T08:15:28;0.40;;;0.40;;
4696;SDS011;2362;50.780;0.292;2022-07-30T08:17:54;0.30;;;0.30;;
4696;SDS011;2362;50.780;0.292;2022-07-30T08:20:19;0.30;;;0.30;;
4696;SDS011;2362;50.780;0.292;2022-07-30T08:22:46;0.30;;;0.30;;
4696;SDS011;2362;50.780;0.292;2022-07-30T08:25:12;0.40;;;0.40;;
4696;SDS011;2362;50.780;0.292;2022-07-30T08:27:37;0.30;;;0.30;;
4696;SDS011;2362;50.780;0.292;2022-07-30T08:30:04;0.30;;;0.30;;
4696;SDS011;2362;50.780;0.292;2022-07-30T08:32:31;0.30;;;0.30;;
4696;SDS011;2362;50.780;0.292;2022-07-30T08:34:57;0.40;;;0.40;;
4696;SDS011;2362;50.780;0.292;2022-07-30T08:37:22;0.30;;;0.30;;
4696;SDS011;2362;50.780;0.292;2022-07-30T08:39:48;0.70;;;0.70;;
4696;SDS011;2362;50.780;0.292;2022-07-30T08:42:14;0.30;;;0.30;;
4696;SDS011;2362;50.780;0.292;2022-07-30T08:44:40;0.20;;;0.20;;
4696;SDS011;2362;50.780;0.292;2022-07-30T08:47:09;0.20;;;0.20;;
4696;SDS011;2362;50.780;0.292;2022-07-30T08:49:40;0.20;;;0.20;;
4696;SDS011;2362;50.780;0.292;2022-07-30T08:52:05;0.20;;;0.20;;
4696;SDS011;2362;50.780;0.292;2022-07-30T08:54:33;0.20;;;0.20;;
4696;SDS011;2362;50.780;0.292;2022-07-30T08:56:59;0.25;;;0.25;;
4696;SDS011;2362;50.780;0.292;2022-07-30T08:59:25;0.20;;;0.20;;
4696;SDS011;2362;50.780;0.292;2022-07-30T09:01:51;0.30;;;0.30;;
4696;SDS011;2362;50.780;0.292;2022-07-30T09:04:17;0.73;;;0.45;;
4696;SDS011;2362;50.780;0.292;2022-07-30T09:06:43;0.30;;;0.30;;
4696;SDS011;2362;50.780;0.292;2022-07-30T09:09:09;0.30;;;0.30;;
4696;SDS011;2362;50.780;0.292;2022-07-30T09:11:35;0.28;;;0.28;;
4696;SDS011;2362;50.780;0.292;2022-07-30T09:14:08;0.20;;;0.20;;
4696;SDS011;2362;50.780;0.292;2022-07-30T09:16:35;0.30;;;0.30;;
4696;SDS011;2362;50.780;0.292;2022-07-30T09:19:10;0.30;;;0.30;;
4696;SDS011;2362;50.780;0.292;2022-07-30T09:21:37;0.28;;;0.28;;
4696;SDS011;2362;50.780;0.292;2022-07-30T09:24:04;0.30;;;0.30;;
4696;SDS011;2362;50.780;0.292;2022-07-30T09:26:50;0.30;;;0.30;;
4696;SDS011;2362;50.780;0.292;2022-07-30T09:29:17;0.30;;;0.30;;
4696;SDS011;2362;50.780;0.292;2022-07-30T09:31:51;0.30;;;0.30;;
4696;SDS011;2362;50.780;0.292;2022-07-30T09:34:24;0.47;;;0.47;;
4696;SDS011;2362;50.780;0.292;2022-07-30T09:36:56;0.40;;;0.40;;
4696;SDS011;2362;50.780;0.292;2022-07-30T09:39:33;0.40;;;0.40;;
4696;SDS011;2362;50.780;0.292;2022-07-30T09:42:01;0.40;;;0.40;;
4696;SDS011;2362;50.780;0.292;2022-07-30T09:44:28;0.40;;;0.40;;
4696;SDS011;2362;50.780;0.292;2022-07-30T09:46:56;0.40;;;0.40;;
4696;SDS011;2362;50.780;0.292;2022-07-30T09:49:26;0.40;;;0.40;;
4696;SDS011;2362;50.780;0.292;2022-07-30T09:51:53;0.30;;;0.30;;
4696;SDS011;2362;50.780;0.292;2022-07-30T09:54:19;0.40;;;0.40;;
4696;SDS011;2362;50.780;0.292;2022-07-30T09:56:45;0.38;;;0.38;;
4696;SDS011;2362;50.780;0.292;2022-07-30T09:59:27;0.30;;;0.30;;
4696;SDS011;2362;50.780;0.292;2022-07-30T10:01:54;0.40;;;0.40;;
4696;SDS011;2362;50.780;0.292;2022-07-30T10:04:25;0.30;;;0.30;;
4696;SDS011;2362;50.780;0.292;2022-07-30T10:06:56;0.40;;;0.40;;
4696;SDS011;2362;50.780;0.292;2022-07-30T10:09:26;0.40;;;0.40;;
4696;SDS011;2362;50.780;0.292;2022-07-30T10:12:00;0.30;;;0.30;;
4696;SDS011;2362;50.780;0.292;2022-07-30T10:14:29;0.30;;;0.30;;
4696;SDS011;2362;50.780;0.292;2022-07-30T10:16:57;0.30;;;0.30;;
4696;SDS011;2362;50.780;0.292;2022-07-30T10:19:23;0.40;;;0.40;;
4696;SDS011;2362;50.780;0.292;2022-07-30T10:21:50;0.40;;;0.40;;
4696;SDS011;2362;50.780;0.292;2022-07-30T10:24:17;0.30;;;0.30;;
4696;SDS011;2362;50.780;0.292;2022-07-30T10:26:47;0.35;;;0.35;;
4696;SDS011;2362;50.780;0.292;2022-07-30T10:29:14;0.30;;;0.30;;
4696;SDS011;2362;50.780;0.292;2022-07-30T10:31:44;0.40;;;0.40;;
4696;SDS011;2362;50.780;0.292;2022-07-30T10:34:11;0.40;;;0.40;;
4696;SDS011;2362;50.780;0.292;2022-07-30T10:36:41;0.30;;;0.30;;
4696;SDS011;2362;50.780;0.292;2022-07-30T10:39:22;0.30;;;0.30;;
4696;SDS011;2362;50.780;0.292;2022-07-30T10:41:56;0.30;;;0.30;;
4696;SDS011;2362;50.780;0.292;2022-07-30T10:47:13;0.52;;;0.52;;
4696;SDS011;2362;50.780;0.292;2022-07-30T10:50:03;0.30;;;0.30;;
4696;SDS011;2362;50.780;0.292;2022-07-30T10:55:19;0.30;;;0.30;;
4696;SDS011;2362;50.780;0.292;2022-07-30T11:00:33;2.92;;;1.67;;
4696;SDS011;2362;50.780;0.292;2022-07-30T11:03:11;0.30;;;0.30;;
4696;SDS011;2362;50.780;0.292;2022-07-30T11:05:39;0.30;;;0.30;;
4696;SDS011;2362;50.780;0.292;2022-07-30T11:10:53;0.30;;;0.30;;
4696;SDS011;2362;50.780;0.292;2022-07-30T11:13:47;0.30;;;0.30;;
4696;SDS011;2362;50.780;0.292;2022-07-30T11:16:18;0.30;;;0.30;;
4696;SDS011;2362;50.780;0.292;2022-07-30T11:21:33;0.30;;;0.30;;
4696;SDS011;2362;50.780;0.292;2022-07-30T11:24:00;0.40;;;0.40;;
4696;SDS011;2362;50.780;0.292;2022-07-30T11:29:06;0.28;;;0.28;;
4696;SDS011;2362;50.780;0.292;2022-07-30T11:31:52;0.30;;;0.30;;
4696;SDS011;2362;50.780;0.292;2022-07-30T11:40:25;0.30;;;0.30;;
4696;SDS011;2362;50.780;0.292;2022-07-30T11:42:26;0.30;;;0.30;;
4696;SDS011;2362;50.780;0.292;2022-07-30T11:47:44;0.40;;;0.40;;
4696;SDS011;2362;50.780;0.292;2022-07-30T11:50:21;0.35;;;0.35;;
4696;SDS011;2362;50.780;0.292;2022-07-30T11:52:58;0.30;;;0.30;;
4696;SDS011;2362;50.780;0.292;2022-07-30T11:55:58;0.40;;;0.40;;
4696;SDS011;2362;50.780;0.292;2022-07-30T11:58:26;0.30;;;0.30;;
4696;SDS011;2362;50.780;0.292;2022-07-30T12:00:57;0.50;;;0.50;;
4696;SDS011;2362;50.780;0.292;2022-07-30T12:03:25;0.30;;;0.30;;
4696;SDS011;2362;50.780;0.292;2022-07-30T12:05:52;0.40;;;0.40;;
4696;SDS011;2362;50.780;0.292;2022-07-30T12:08:19;0.30;;;0.30;;
4696;SDS011;2362;50.780;0.292;2022-07-30T12:10:58;0.40;;;0.40;;
4696;SDS011;2362;50.780;0.292;2022-07-30T12:13:25;0.40;;;0.40;;
4696;SDS011;2362;50.780;0.292;2022-07-30T12:15:51;0.40;;;0.40;;
4696;SDS011;2362;50.780;0.292;2022-07-30T12:18:28;0.43;;;0.43;;
4696;SDS011;2362;50.780;0.292;2022-07-30T12:20:59;0.30;;;0.30;;
4696;SDS011;2362;50.780;0.292;2022-07-30T12:23:32;0.40;;;0.40;;
4696;SDS011;2362;50.780;0.292;2022-07-30T12:25:58;0.30;;;0.30;;
4696;SDS011;2362;50.780;0.292;2022-07-30T12:28:24;0.30;;;0.30;;
4696;SDS011;2362;50.780;0.292;2022-07-30T12:30:52;0.30;;;0.30;;
4696;SDS011;2362;50.780;0.292;2022-07-30T12:33:19;0.38;;;0.38;;
4696;SDS011;2362;50.780;0.292;2022-07-30T12:35:53;0.40;;;0.40;;
4696;SDS011;2362;50.780;0.292;2022-07-30T12:38:20;0.40;;;0.40;;
4696;SDS011;2362;50.780;0.292;2022-07-30T12:40:55;0.30;;;0.30;;
4696;SDS011;2362;50.780;0.292;2022-07-30T12:44:09;0.65;;;0.60;;
4696;SDS011;2362;50.780;0.292;2022-07-30T12:46:21;0.40;;;0.40;;
4696;SDS011;2362;50.780;0.292;2022-07-30T12:48:49;0.30;;;0.30;;
4696;SDS011;2362;50.780;0.292;2022-07-30T12:51:15;0.40;;;0.40;;
4696;SDS011;2362;50.780;0.292;2022-07-30T12:53:41;0.40;;;0.40;;
4696;SDS011;2362;50.780;0.292;2022-07-30T12:56:14;0.40;;;0.40;;
4696;SDS011;2362;50.780;0.292;2022-07-30T12:58:47;0.40;;;0.40;;
4696;SDS011;2362;50.780;0.292;2022-07-30T13:01:14;0.40;;;0.40;;
4696;SDS011;2362;50.780;0.292;2022-07-30T13:03:40;0.40;;;0.40;;
4696;SDS011;2362;50.780;0.292;2022-07-30T13:08:53;6.13;;;0.70;;
4696;SDS011;2362;50.780;0.292;2022-07-30T13:11:43;0.30;;;0.30;;
4696;SDS011;2362;50.780;0.292;2022-07-30T13:14:08;0.40;;;0.40;;
4696;SDS011;2362;50.780;0.292;2022-07-30T13:16:36;0.45;;;0.45;;
4696;SDS011;2362;50.780;0.292;2022-07-30T13:19:03;0.40;;;0.40;;
4696;SDS011;2362;50.780;0.292;2022-07-30T13:21:30;0.50;;;0.50;;
4696;SDS011;2362;50.780;0.292;2022-07-30T13:23:58;0.40;;;0.40;;
4696;SDS011;2362;50.780;0.292;2022-07-30T13:26:24;0.73;;;0.73;;
4696;SDS011;2362;50.780;0.292;2022-07-30T13:28:49;0.40;;;0.40;;
4696;SDS011;2362;50.780;0.292;2022-07-30T13:31:15;0.43;;;0.43;;
4696;SDS011;2362;50.780;0.292;2022-07-30T13:33:42;0.50;;;0.50;;
4696;SDS011;2362;50.780;0.292;2022-07-30T13:36:08;0.30;;;0.30;;
4696;SDS011;2362;50.780;0.292;2022-07-30T13:38:34;0.30;;;0.30;;
4696;SDS011;2362;50.780;0.292;2022-07-30T13:41:00;0.30;;;0.30;;
4696;SDS011;2362;50.780;0.292;2022-07-30T13:43:26;0.30;;;0.30;;
4696;SDS011;2362;50.780;0.292;2022-07-30T13:45:52;0.30;;;0.30;;
4696;SDS011;2362;50.780;0.292;2022-07-30T13:48:18;0.40;;;0.40;;
4696;SDS011;2362;50.780;0.292;2022-07-30T13:50:44;0.40;;;0.40;;
4696;SDS011;2362;50.780;0.292;2022-07-30T13:53:10;0.30;;;0.30;;
4696;SDS011;2362;50.780;0.292;2022-07-30T13:55:36;0.40;;;0.40;;
4696;SDS011;2362;50.780;0.292;2022-07-30T13:58:03;0.40;;;0.40;;
4696;SDS011;2362;50.780;0.292;2022-07-30T14:00:30;0.30;;;0.30;;
4696;SDS011;2362;50.780;0.292;2022-07-30T14:03:05;0.40;;;0.40;;
4696;SDS011;2362;50.780;0.292;2022-07-30T14:05:32;0.40;;;0.40;;
4696;SDS011;2362;50.780;0.292;2022-07-30T14:07:58;0.40;;;0.40;;
4696;SDS011;2362;50.780;0.292;2022-07-30T14:10:24;0.40;;;0.40;;
4696;SDS011;2362;50.780;0.292;2022-07-30T14:12:50;0.40;;;0.40;;
4696;SDS011;2362;50.780;0.292;2022-07-30T14:15:20;0.50;;;0.50;;
4696;SDS011;2362;50.780;0.292;2022-07-30T14:17:49;0.40;;;0.40;;
4696;SDS011;2362;50.780;0.292;2022-07-30T14:20:16;0.40;;;0.40;;
4696;SDS011;2362;50.780;0.292;2022-07-30T14:22:42;0.40;;;0.40;;
4696;SDS011;2362;50.780;0.292;2022-07-30T14:25:08;0.40;;;0.40;;
4696;SDS011;2362;50.780;0.292;2022-07-30T14:27:35;0.43;;;0.40;;
4696;SDS011;2362;50.780;0.292;2022-07-30T14:30:02;0.40;;;0.40;;
4696;SDS011;2362;50.780;0.292;2022-07-30T14:32:32;0.40;;;0.40;;
4696;SDS011;2362;50.780;0.292;2022-07-30T14:34:57;1.10;;;0.80;;
4696;SDS011;2362;50.780;0.292;2022-07-30T14:37:23;0.47;;;0.47;;
4696;SDS011;2362;50.780;0.292;2022-07-30T14:39:49;0.50;;;0.50;;
4696;SDS011;2362;50.780;0.292;2022-07-30T14:42:15;0.50;;;0.50;;
4696;SDS011;2362;50.780;0.292;2022-07-30T14:44:44;0.40;;;0.40;;
4696;SDS011;2362;50.780;0.292;2022-07-30T14:47:10;0.40;;;0.40;;
4696;SDS011;2362;50.780;0.292;2022-07-30T14:49:35;0.40;;;0.40;;
4696;SDS011;2362;50.780;0.292;2022-07-30T14:52:01;0.47;;;0.47;;
4696;SDS011;2362;50.780;0.292;2022-07-30T14:54:26;0.50;;;0.50;;
4696;SDS011;2362;50.780;0.292;2022-07-30T14:56:52;0.40;;;0.40;;
4696;SDS011;2362;50.780;0.292;2022-07-30T14:59:18;0.40;;;0.40;;
4696;SDS011;2362;50.780;0.292;2022-07-30T15:01:44;0.38;;;0.38;;
4696;SDS011;2362;50.780;0.292;2022-07-30T15:04:11;0.30;;;0.30;;
4696;SDS011;2362;50.780;0.292;2022-07-30T15:06:38;0.40;;;0.40;;
4696;SDS011;2362;50.780;0.292;2022-07-30T15:09:06;0.35;;;0.35;;
4696;SDS011;2362;50.780;0.292;2022-07-30T15:11:32;0.40;;;0.40;;
4696;SDS011;2362;50.780;0.292;2022-07-30T15:13:58;0.40;;;0.40;;
4696;SDS011;2362;50.780;0.292;2022-07-30T15:16:24;2.92;;;1.63;;
4696;SDS011;2362;50.780;0.292;2022-07-30T15:18:49;0.40;;;0.40;;
4696;SDS011;2362;50.780;0.292;2022-07-30T15:21:15;0.50;;;0.50;;
4696;SDS011;2362;50.780;0.292;2022-07-30T15:23:41;0.50;;;0.50;;
4696;SDS011;2362;50.780;0.292;2022-07-30T15:26:07;0.40;;;0.40;;
4696;SDS011;2362;50.780;0.292;2022-07-30T15:28:32;0.40;;;0.40;;
4696;SDS011;2362;50.780;0.292;2022-07-30T15:30:58;0.50;;;0.50;;
4696;SDS011;2362;50.780;0.292;2022-07-30T15:33:24;0.50;;;0.50;;
4696;SDS011;2362;50.780;0.292;2022-07-30T15:35:50;0.40;;;0.40;;
4696;SDS011;2362;50.780;0.292;2022-07-30T15:38:15;0.40;;;0.40;;
4696;SDS011;2362;50.780;0.292;2022-07-30T15:40:41;0.50;;;0.50;;
4696;SDS011;2362;50.780;0.292;2022-07-30T15:43:07;0.40;;;0.40;;
4696;SDS011;2362;50.780;0.292;2022-07-30T15:45:33;1.38;;;0.70;;
4696;SDS011;2362;50.780;0.292;2022-07-30T15:47:59;0.60;;;0.60;;
4696;SDS011;2362;50.780;0.292;2022-07-30T15:50:24;0.50;;;0.50;;
4696;SDS011;2362;50.780;0.292;2022-07-30T15:52:50;0.52;;;0.52;;
4696;SDS011;2362;50.780;0.292;2022-07-30T15:55:16;0.40;;;0.40;;